TOM888 ESGG-EGGD
Flight info
| Callsign | TOM888 |
|---|---|
| Flight time | 1h 53m |
| Altitude | 38000 |
| Route | VADIN M852 ALS N872 PAM L980 LAM L179 ICTAM |
| Aircraft | B738/M-SDE2E3FGHIRWXY/LB1 |
Departure
| Time | 2026-05-06 13:37 |
|---|---|
| Airport | Göteborg Landvetter Airport (ESGG) |
Arrival
| Time | 2026-05-06 15:30 |
|---|---|
| Airport | Bristol Airport (EGGD) |
| Time | Latitude | Longitude | Altitude | Speed | Heading |
|---|---|---|---|---|---|
| 2026-05-06 13:06 | 57.67048 | 12.29566 | 515 ft | 0 kts | 116° |
| 2026-05-06 13:28 | 57.67051 | 12.29552 | 515 ft | 4 kts | 116° |
| 2026-05-06 13:28 | 57.67063 | 12.29508 | 515 ft | 3 kts | 116° |
| 2026-05-06 13:28 | 57.67074 | 12.29473 | 515 ft | 4 kts | 139° |
| 2026-05-06 13:29 | 57.67094 | 12.29458 | 515 ft | 4 kts | 201° |
| 2026-05-06 13:29 | 57.67114 | 12.29475 | 515 ft | 1 kts | 206° |
| 2026-05-06 13:29 | 57.67114 | 12.29476 | 515 ft | 1 kts | 206° |
| 2026-05-06 13:32 | 57.67113 | 12.29475 | 515 ft | 1 kts | 206° |
| 2026-05-06 13:32 | 57.67094 | 12.29457 | 515 ft | 4 kts | 206° |
| 2026-05-06 13:32 | 57.67059 | 12.29426 | 515 ft | 7 kts | 206° |
| 2026-05-06 13:32 | 57.67012 | 12.29382 | 515 ft | 8 kts | 206° |
| 2026-05-06 13:33 | 57.66986 | 12.29295 | 515 ft | 9 kts | 291° |
| 2026-05-06 13:33 | 57.67022 | 12.29194 | 515 ft | 10 kts | 335° |
| 2026-05-06 13:33 | 57.67086 | 12.29224 | 515 ft | 10 kts | 24° |
| 2026-05-06 13:33 | 57.67148 | 12.29280 | 515 ft | 10 kts | 26° |
| 2026-05-06 13:34 | 57.67210 | 12.29335 | 515 ft | 10 kts | 26° |
| 2026-05-06 13:34 | 57.67270 | 12.29391 | 515 ft | 9 kts | 27° |
| 2026-05-06 13:34 | 57.67328 | 12.29444 | 515 ft | 9 kts | 25° |
| 2026-05-06 13:34 | 57.67386 | 12.29484 | 515 ft | 9 kts | 356° |
| 2026-05-06 13:35 | 57.67430 | 12.29402 | 515 ft | 10 kts | 302° |
| 2026-05-06 13:35 | 57.67458 | 12.29287 | 514 ft | 10 kts | 281° |
| 2026-05-06 13:35 | 57.67461 | 12.29130 | 513 ft | 14 kts | 287° |
| 2026-05-06 13:35 | 57.67451 | 12.29046 | 514 ft | 7 kts | 216° |
| 2026-05-06 13:36 | 57.67389 | 12.28987 | 514 ft | 25 kts | 206° |
| 2026-05-06 13:36 | 57.66996 | 12.28629 | 512 ft | 100 kts | 206° |
| 2026-05-06 13:36 | 57.66177 | 12.27879 | 509 ft | 160 kts | 207° |
| 2026-05-06 13:36 | 57.65100 | 12.26940 | 1079 ft | 169 kts | 207° |
| 2026-05-06 13:37 | 57.64020 | 12.25973 | 1891 ft | 177 kts | 208° |
| 2026-05-06 13:37 | 57.62895 | 12.24969 | 2638 ft | 188 kts | 207° |
| 2026-05-06 13:37 | 57.61631 | 12.23825 | 2978 ft | 214 kts | 207° |
| 2026-05-06 13:37 | 57.60126 | 12.23085 | 3307 ft | 233 kts | 182° |
| 2026-05-06 13:38 | 57.58486 | 12.22984 | 3924 ft | 240 kts | 182° |
| 2026-05-06 13:38 | 57.56776 | 12.22788 | 4297 ft | 258 kts | 183° |
| 2026-05-06 13:38 | 57.54938 | 12.22515 | 5010 ft | 269 kts | 185° |
| 2026-05-06 13:38 | 57.53116 | 12.22128 | 6182 ft | 261 kts | 186° |
| 2026-05-06 13:39 | 57.51327 | 12.21737 | 7177 ft | 261 kts | 186° |
| 2026-05-06 13:39 | 57.49510 | 12.21349 | 8043 ft | 265 kts | 186° |
| 2026-05-06 13:39 | 57.47657 | 12.20958 | 8818 ft | 272 kts | 186° |
| 2026-05-06 13:39 | 57.45753 | 12.20557 | 9573 ft | 279 kts | 186° |
| 2026-05-06 13:40 | 57.43836 | 12.19808 | 10264 ft | 287 kts | 205° |
| 2026-05-06 13:40 | 57.42171 | 12.17558 | 10500 ft | 310 kts | 224° |
| 2026-05-06 13:40 | 57.40615 | 12.14645 | 10712 ft | 333 kts | 226° |
| 2026-05-06 13:40 | 57.38968 | 12.11479 | 11137 ft | 347 kts | 226° |
| 2026-05-06 13:41 | 57.37292 | 12.08257 | 11949 ft | 348 kts | 227° |
| 2026-05-06 13:41 | 57.35595 | 12.05017 | 12728 ft | 352 kts | 226° |
| 2026-05-06 13:41 | 57.33872 | 12.01751 | 13478 ft | 357 kts | 226° |
| 2026-05-06 13:41 | 57.32127 | 11.98466 | 14300 ft | 359 kts | 226° |
| 2026-05-06 13:42 | 57.30368 | 11.95168 | 15069 ft | 362 kts | 226° |
| 2026-05-06 13:42 | 57.28598 | 11.91858 | 15877 ft | 363 kts | 226° |
| 2026-05-06 13:42 | 57.26817 | 11.88537 | 16705 ft | 364 kts | 226° |
| 2026-05-06 13:42 | 57.25028 | 11.85206 | 17505 ft | 366 kts | 226° |
| 2026-05-06 13:43 | 57.23252 | 11.81902 | 18275 ft | 369 kts | 227° |
| 2026-05-06 13:43 | 57.21439 | 11.78535 | 18937 ft | 371 kts | 227° |
| 2026-05-06 13:43 | 57.19618 | 11.75158 | 19633 ft | 372 kts | 227° |
| 2026-05-06 13:43 | 57.17792 | 11.71774 | 20305 ft | 373 kts | 227° |
| 2026-05-06 13:44 | 57.15953 | 11.68377 | 20958 ft | 375 kts | 227° |
| 2026-05-06 13:44 | 57.14063 | 11.65046 | 21584 ft | 379 kts | 221° |
| 2026-05-06 13:44 | 57.11759 | 11.62593 | 22192 ft | 387 kts | 207° |
| 2026-05-06 13:44 | 57.09268 | 11.60673 | 22768 ft | 390 kts | 206° |
| 2026-05-06 13:45 | 57.06748 | 11.58748 | 23284 ft | 394 kts | 206° |
| 2026-05-06 13:45 | 57.01696 | 11.54872 | 24265 ft | 398 kts | 207° |
| 2026-05-06 13:45 | 56.99137 | 11.52895 | 24770 ft | 399 kts | 207° |
| 2026-05-06 13:46 | 56.96575 | 11.50908 | 25253 ft | 401 kts | 206° |
| 2026-05-06 13:46 | 56.94005 | 11.48911 | 25708 ft | 402 kts | 206° |
| 2026-05-06 13:46 | 56.91422 | 11.46904 | 26144 ft | 404 kts | 206° |
| 2026-05-06 13:46 | 56.88825 | 11.44888 | 26583 ft | 406 kts | 206° |
| 2026-05-06 13:47 | 56.86222 | 11.42868 | 27011 ft | 408 kts | 206° |
| 2026-05-06 13:47 | 56.83636 | 11.40866 | 27346 ft | 411 kts | 206° |
| 2026-05-06 13:47 | 56.80993 | 11.38821 | 27695 ft | 414 kts | 206° |
| 2026-05-06 13:47 | 56.78335 | 11.36769 | 28088 ft | 415 kts | 206° |
| 2026-05-06 13:48 | 56.75668 | 11.34714 | 28495 ft | 417 kts | 206° |
| 2026-05-06 13:48 | 56.72994 | 11.32657 | 28871 ft | 418 kts | 206° |
| 2026-05-06 13:48 | 56.70307 | 11.30593 | 29267 ft | 419 kts | 206° |
| 2026-05-06 13:48 | 56.67625 | 11.28536 | 29813 ft | 417 kts | 206° |
| 2026-05-06 13:49 | 56.64964 | 11.26500 | 30372 ft | 413 kts | 206° |
| 2026-05-06 13:49 | 56.62323 | 11.24483 | 30824 ft | 411 kts | 206° |
| 2026-05-06 13:49 | 56.59719 | 11.22494 | 31132 ft | 412 kts | 205° |
| 2026-05-06 13:49 | 56.57073 | 11.20474 | 31406 ft | 414 kts | 205° |
| 2026-05-06 13:50 | 56.54414 | 11.18448 | 31769 ft | 414 kts | 205° |
| 2026-05-06 13:50 | 56.51763 | 11.16434 | 32212 ft | 412 kts | 205° |
| 2026-05-06 13:50 | 56.49126 | 11.14433 | 32648 ft | 410 kts | 205° |
| 2026-05-06 13:50 | 56.46493 | 11.12437 | 33006 ft | 410 kts | 205° |
| 2026-05-06 13:51 | 56.43859 | 11.10443 | 33349 ft | 410 kts | 205° |
| 2026-05-06 13:51 | 56.41226 | 11.08453 | 33739 ft | 410 kts | 205° |
| 2026-05-06 13:51 | 56.38604 | 11.06475 | 34095 ft | 408 kts | 205° |
| 2026-05-06 13:51 | 56.36013 | 11.04522 | 34346 ft | 410 kts | 205° |
| 2026-05-06 13:52 | 56.33374 | 11.02535 | 34498 ft | 413 kts | 205° |
| 2026-05-06 13:52 | 56.30711 | 11.00533 | 34633 ft | 416 kts | 205° |
| 2026-05-06 13:52 | 56.28035 | 10.98526 | 34911 ft | 416 kts | 205° |
| 2026-05-06 13:52 | 56.25365 | 10.96527 | 35233 ft | 415 kts | 205° |
| 2026-05-06 13:53 | 56.22698 | 10.94530 | 35470 ft | 416 kts | 205° |
| 2026-05-06 13:53 | 56.20019 | 10.92524 | 35671 ft | 418 kts | 205° |
| 2026-05-06 13:53 | 56.17332 | 10.90514 | 35917 ft | 419 kts | 205° |
| 2026-05-06 13:53 | 56.14678 | 10.88535 | 36176 ft | 419 kts | 205° |
| 2026-05-06 13:54 | 56.11986 | 10.86533 | 36412 ft | 419 kts | 205° |
| 2026-05-06 13:54 | 56.09289 | 10.84533 | 36608 ft | 420 kts | 205° |
| 2026-05-06 13:54 | 56.06575 | 10.82524 | 36739 ft | 424 kts | 205° |
| 2026-05-06 13:54 | 56.03843 | 10.80505 | 36918 ft | 425 kts | 205° |
| 2026-05-06 13:55 | 56.01108 | 10.78486 | 37175 ft | 425 kts | 205° |
| 2026-05-06 13:55 | 55.98373 | 10.76471 | 37451 ft | 425 kts | 205° |
| 2026-05-06 13:55 | 55.95639 | 10.74459 | 37675 ft | 425 kts | 205° |
| 2026-05-06 13:55 | 55.92899 | 10.72445 | 37875 ft | 426 kts | 205° |
| 2026-05-06 13:56 | 55.87416 | 10.68422 | 37924 ft | 431 kts | 205° |
| 2026-05-06 13:56 | 55.81880 | 10.64375 | 37905 ft | 428 kts | 204° |
| 2026-05-06 13:57 | 55.76398 | 10.60380 | 37923 ft | 425 kts | 204° |
| 2026-05-06 13:57 | 55.70943 | 10.56415 | 37924 ft | 423 kts | 204° |
| 2026-05-06 13:58 | 55.65540 | 10.52500 | 37923 ft | 422 kts | 204° |
| 2026-05-06 13:58 | 55.60107 | 10.48575 | 37923 ft | 422 kts | 204° |
| 2026-05-06 13:59 | 55.54672 | 10.44659 | 37944 ft | 422 kts | 204° |
| 2026-05-06 13:59 | 55.49218 | 10.40743 | 37941 ft | 424 kts | 204° |
| 2026-05-06 14:00 | 55.43782 | 10.36850 | 37942 ft | 425 kts | 204° |
| 2026-05-06 14:00 | 55.38290 | 10.32930 | 37940 ft | 427 kts | 204° |
| 2026-05-06 14:01 | 55.32778 | 10.29007 | 37904 ft | 428 kts | 204° |
| 2026-05-06 14:01 | 55.27249 | 10.25084 | 37916 ft | 429 kts | 204° |
| 2026-05-06 14:02 | 55.21708 | 10.21164 | 37910 ft | 430 kts | 204° |
| 2026-05-06 14:02 | 55.16191 | 10.17273 | 37912 ft | 431 kts | 204° |
| 2026-05-06 14:03 | 55.10630 | 10.13362 | 37907 ft | 431 kts | 204° |
| 2026-05-06 14:03 | 55.05072 | 10.09465 | 37905 ft | 430 kts | 204° |
| 2026-05-06 14:04 | 54.99516 | 10.05579 | 37912 ft | 430 kts | 204° |
| 2026-05-06 14:04 | 54.93975 | 10.01675 | 37906 ft | 429 kts | 207° |
| 2026-05-06 14:05 | 54.89072 | 9.96041 | 37910 ft | 426 kts | 221° |
| 2026-05-06 14:05 | 54.85096 | 9.88469 | 37894 ft | 425 kts | 230° |
| 2026-05-06 14:06 | 54.81515 | 9.80324 | 37902 ft | 424 kts | 234° |
| 2026-05-06 14:06 | 54.78133 | 9.71932 | 37907 ft | 425 kts | 234° |
| 2026-05-06 14:07 | 54.74756 | 9.63613 | 37900 ft | 426 kts | 234° |
| 2026-05-06 14:07 | 54.71330 | 9.55246 | 37902 ft | 426 kts | 234° |
| 2026-05-06 14:08 | 54.67895 | 9.46889 | 37901 ft | 427 kts | 234° |
| 2026-05-06 14:08 | 54.64449 | 9.38539 | 37896 ft | 427 kts | 234° |
| 2026-05-06 14:09 | 54.60981 | 9.30217 | 37888 ft | 427 kts | 233° |
| 2026-05-06 14:09 | 54.57522 | 9.21966 | 37892 ft | 428 kts | 233° |
| 2026-05-06 14:10 | 54.54031 | 9.13659 | 37903 ft | 428 kts | 233° |
| 2026-05-06 14:10 | 54.50532 | 9.05353 | 37889 ft | 429 kts | 233° |
| 2026-05-06 14:11 | 54.47023 | 8.97051 | 37885 ft | 429 kts | 233° |
| 2026-05-06 14:11 | 54.43533 | 8.88819 | 37888 ft | 429 kts | 233° |
| 2026-05-06 14:12 | 54.40013 | 8.80543 | 37882 ft | 429 kts | 233° |
| 2026-05-06 14:12 | 54.36489 | 8.72288 | 37892 ft | 429 kts | 233° |
| 2026-05-06 14:13 | 54.32957 | 8.64039 | 37893 ft | 429 kts | 233° |
| 2026-05-06 14:13 | 54.29424 | 8.55814 | 37889 ft | 429 kts | 233° |
| 2026-05-06 14:14 | 54.25908 | 8.47654 | 37904 ft | 429 kts | 233° |
| 2026-05-06 14:14 | 54.22454 | 8.39791 | 37894 ft | 429 kts | 230° |
| 2026-05-06 14:15 | 54.18997 | 8.33930 | 37905 ft | 428 kts | 223° |
| 2026-05-06 14:15 | 54.15839 | 8.28939 | 37894 ft | 429 kts | 223° |
| 2026-05-06 14:16 | 54.13171 | 8.24698 | 37895 ft | 429 kts | 224° |
| 2026-05-06 14:16 | 54.09870 | 8.19360 | 37899 ft | 429 kts | 224° |
| 2026-05-06 14:17 | 54.06448 | 8.13821 | 37894 ft | 429 kts | 224° |
| 2026-05-06 14:17 | 54.02445 | 8.07337 | 37894 ft | 429 kts | 224° |
| 2026-05-06 14:18 | 53.98147 | 8.00396 | 37900 ft | 429 kts | 224° |
| 2026-05-06 14:18 | 53.93828 | 7.93493 | 37898 ft | 429 kts | 223° |
| 2026-05-06 14:19 | 53.89475 | 7.86575 | 37915 ft | 429 kts | 223° |
| 2026-05-06 14:19 | 53.85112 | 7.79655 | 37898 ft | 430 kts | 223° |
| 2026-05-06 14:20 | 53.80741 | 7.72739 | 37911 ft | 430 kts | 223° |
| 2026-05-06 14:20 | 53.76361 | 7.65827 | 37903 ft | 431 kts | 223° |
| 2026-05-06 14:21 | 53.72000 | 7.58965 | 37902 ft | 431 kts | 223° |
| 2026-05-06 14:21 | 53.67608 | 7.52075 | 37912 ft | 431 kts | 223° |
| 2026-05-06 14:22 | 53.63214 | 7.45202 | 37902 ft | 431 kts | 223° |
| 2026-05-06 14:22 | 53.58812 | 7.38337 | 37906 ft | 432 kts | 223° |
| 2026-05-06 14:23 | 53.54432 | 7.31527 | 37909 ft | 432 kts | 223° |
| 2026-05-06 14:23 | 53.50019 | 7.24686 | 37884 ft | 431 kts | 223° |
| 2026-05-06 14:24 | 53.45606 | 7.17863 | 37898 ft | 431 kts | 223° |
| 2026-05-06 14:24 | 53.41185 | 7.11049 | 37913 ft | 431 kts | 223° |
| 2026-05-06 14:25 | 53.36794 | 7.04298 | 37912 ft | 432 kts | 223° |
| 2026-05-06 14:25 | 53.32434 | 6.97393 | 37907 ft | 431 kts | 227° |
| 2026-05-06 14:26 | 53.28489 | 6.89836 | 37901 ft | 432 kts | 229° |
| 2026-05-06 14:26 | 53.24577 | 6.82227 | 37910 ft | 432 kts | 229° |
| 2026-05-06 14:27 | 53.20650 | 6.74738 | 37908 ft | 432 kts | 229° |
| 2026-05-06 14:27 | 53.16677 | 6.67226 | 37913 ft | 432 kts | 228° |
| 2026-05-06 14:28 | 53.12752 | 6.59648 | 37917 ft | 432 kts | 230° |
| 2026-05-06 14:28 | 53.08862 | 6.52010 | 37906 ft | 433 kts | 230° |
| 2026-05-06 14:29 | 53.04987 | 6.44434 | 37892 ft | 433 kts | 229° |
| 2026-05-06 14:29 | 53.01075 | 6.36829 | 37896 ft | 433 kts | 229° |
| 2026-05-06 14:30 | 52.97149 | 6.29230 | 37899 ft | 434 kts | 229° |
| 2026-05-06 14:30 | 52.93215 | 6.21639 | 37898 ft | 434 kts | 229° |
| 2026-05-06 14:31 | 52.89274 | 6.14058 | 37890 ft | 434 kts | 229° |
| 2026-05-06 14:31 | 52.85355 | 6.06541 | 37895 ft | 434 kts | 229° |
| 2026-05-06 14:32 | 52.81402 | 5.98980 | 37892 ft | 435 kts | 229° |
| 2026-05-06 14:32 | 52.77446 | 5.91434 | 37893 ft | 435 kts | 229° |
| 2026-05-06 14:33 | 52.73481 | 5.83896 | 37893 ft | 435 kts | 229° |
| 2026-05-06 14:33 | 52.69507 | 5.76380 | 37887 ft | 435 kts | 229° |
| 2026-05-06 14:34 | 52.65555 | 5.68936 | 37889 ft | 435 kts | 229° |
| 2026-05-06 14:34 | 52.61570 | 5.61450 | 37873 ft | 435 kts | 229° |
| 2026-05-06 14:35 | 52.57583 | 5.53978 | 37888 ft | 434 kts | 229° |
| 2026-05-06 14:35 | 52.53592 | 5.46519 | 37885 ft | 435 kts | 229° |
| 2026-05-06 14:36 | 52.49620 | 5.39114 | 37890 ft | 435 kts | 229° |
| 2026-05-06 14:36 | 52.45611 | 5.31664 | 37882 ft | 436 kts | 229° |
| 2026-05-06 14:37 | 52.41603 | 5.24210 | 37888 ft | 436 kts | 229° |
| 2026-05-06 14:37 | 52.37584 | 5.16752 | 37890 ft | 437 kts | 228° |
| 2026-05-06 14:38 | 52.33844 | 5.08943 | 37906 ft | 437 kts | 239° |
| 2026-05-06 14:38 | 52.31473 | 4.99869 | 37925 ft | 438 kts | 251° |
| 2026-05-06 14:39 | 52.29574 | 4.90317 | 37911 ft | 439 kts | 251° |
| 2026-05-06 14:39 | 52.27660 | 4.80901 | 37910 ft | 440 kts | 250° |
| 2026-05-06 14:40 | 52.25696 | 4.71450 | 37910 ft | 440 kts | 250° |
| 2026-05-06 14:40 | 52.23720 | 4.62001 | 37878 ft | 440 kts | 250° |
| 2026-05-06 14:41 | 52.21739 | 4.52561 | 37887 ft | 440 kts | 250° |
| 2026-05-06 14:41 | 52.19765 | 4.43186 | 37885 ft | 440 kts | 250° |
| 2026-05-06 14:42 | 52.17773 | 4.33766 | 37882 ft | 440 kts | 250° |
| 2026-05-06 14:42 | 52.15775 | 4.24359 | 37889 ft | 439 kts | 250° |
| 2026-05-06 14:43 | 52.13769 | 4.14959 | 37889 ft | 439 kts | 250° |
| 2026-05-06 14:43 | 52.11758 | 4.05576 | 37903 ft | 439 kts | 250° |
| 2026-05-06 14:44 | 52.09751 | 3.96255 | 37899 ft | 439 kts | 250° |
| 2026-05-06 14:45 | 52.06712 | 3.82213 | 37920 ft | 439 kts | 250° |
| 2026-05-06 14:45 | 52.04681 | 3.72862 | 37896 ft | 439 kts | 250° |
| 2026-05-06 14:46 | 52.02665 | 3.63600 | 37916 ft | 438 kts | 250° |
| 2026-05-06 14:46 | 52.00798 | 3.55061 | 37913 ft | 437 kts | 249° |
| 2026-05-06 14:47 | 51.98468 | 3.46887 | 37908 ft | 435 kts | 235° |
| 2026-05-06 14:47 | 51.95083 | 3.39479 | 37940 ft | 435 kts | 233° |
| 2026-05-06 14:48 | 51.91628 | 3.31989 | 37914 ft | 436 kts | 233° |
| 2026-05-06 14:48 | 51.88083 | 3.24191 | 37941 ft | 436 kts | 234° |
| 2026-05-06 14:49 | 51.85263 | 3.15530 | 37943 ft | 437 kts | 250° |
| 2026-05-06 14:49 | 51.84061 | 3.05890 | 37955 ft | 439 kts | 263° |
| 2026-05-06 14:50 | 51.83497 | 2.96105 | 37938 ft | 441 kts | 263° |
| 2026-05-06 14:50 | 51.82896 | 2.86236 | 37935 ft | 442 kts | 263° |
| 2026-05-06 14:51 | 51.82248 | 2.76360 | 37944 ft | 442 kts | 263° |
| 2026-05-06 14:51 | 51.81585 | 2.66474 | 37946 ft | 443 kts | 263° |
| 2026-05-06 14:52 | 51.80911 | 2.56645 | 37943 ft | 443 kts | 263° |
| 2026-05-06 14:52 | 51.80257 | 2.47245 | 37947 ft | 443 kts | 262° |
| 2026-05-06 14:53 | 51.79570 | 2.37442 | 37953 ft | 443 kts | 263° |
| 2026-05-06 14:53 | 51.78897 | 2.27934 | 37955 ft | 443 kts | 263° |
| 2026-05-06 14:54 | 51.78213 | 2.18057 | 37954 ft | 442 kts | 263° |
| 2026-05-06 14:54 | 51.77644 | 2.08235 | 37947 ft | 442 kts | 264° |
| 2026-05-06 14:55 | 51.77077 | 1.98351 | 37957 ft | 442 kts | 264° |
| 2026-05-06 14:55 | 51.76487 | 1.88462 | 37961 ft | 442 kts | 264° |
| 2026-05-06 14:56 | 51.75985 | 1.80256 | 37958 ft | 442 kts | 264° |
| 2026-05-06 14:56 | 51.75275 | 1.68772 | 37962 ft | 442 kts | 264° |
| 2026-05-06 14:57 | 51.74654 | 1.58902 | 37964 ft | 442 kts | 263° |
| 2026-05-06 14:57 | 51.74014 | 1.49026 | 37958 ft | 442 kts | 263° |
| 2026-05-06 14:58 | 51.73477 | 1.40828 | 37964 ft | 442 kts | 263° |
| 2026-05-06 14:58 | 51.72718 | 1.29361 | 37964 ft | 442 kts | 263° |
| 2026-05-06 14:59 | 51.72058 | 1.19492 | 37966 ft | 443 kts | 263° |
| 2026-05-06 14:59 | 51.71504 | 1.11292 | 37966 ft | 443 kts | 263° |
| 2026-05-06 15:00 | 51.70838 | 1.01419 | 37964 ft | 443 kts | 263° |
| 2026-05-06 15:00 | 51.70059 | 0.89957 | 37975 ft | 442 kts | 263° |
| 2026-05-06 15:01 | 51.69479 | 0.81701 | 37966 ft | 442 kts | 263° |
| 2026-05-06 15:01 | 51.68782 | 0.71920 | 37964 ft | 442 kts | 263° |
| 2026-05-06 15:02 | 51.68052 | 0.62088 | 37969 ft | 442 kts | 263° |
| 2026-05-06 15:02 | 51.67362 | 0.52264 | 37967 ft | 441 kts | 263° |
| 2026-05-06 15:03 | 51.66659 | 0.42456 | 37975 ft | 441 kts | 263° |
| 2026-05-06 15:03 | 51.65926 | 0.32656 | 37985 ft | 440 kts | 263° |
| 2026-05-06 15:04 | 51.65190 | 0.22936 | 37991 ft | 440 kts | 263° |
| 2026-05-06 15:04 | 51.64435 | 0.13172 | 37992 ft | 439 kts | 262° |
| 2026-05-06 15:05 | 51.63395 | 0.03486 | 37996 ft | 439 kts | 259° |
| 2026-05-06 15:05 | 51.62320 | -0.06051 | 38013 ft | 421 kts | 260° |
| 2026-05-06 15:05 | 51.61824 | -0.10610 | 38020 ft | 407 kts | 260° |
| 2026-05-06 15:06 | 51.61378 | -0.15033 | 38020 ft | 394 kts | 262° |
| 2026-05-06 15:06 | 51.61014 | -0.19329 | 38021 ft | 381 kts | 263° |
| 2026-05-06 15:06 | 51.60685 | -0.23497 | 38027 ft | 368 kts | 263° |
| 2026-05-06 15:07 | 51.60054 | -0.31494 | 38003 ft | 363 kts | 263° |
| 2026-05-06 15:07 | 51.59385 | -0.39674 | 38004 ft | 377 kts | 262° |
| 2026-05-06 15:08 | 51.58676 | -0.48131 | 37934 ft | 382 kts | 262° |
| 2026-05-06 15:08 | 51.58321 | -0.52323 | 37506 ft | 375 kts | 262° |
| 2026-05-06 15:08 | 51.57968 | -0.56459 | 36828 ft | 374 kts | 262° |
| 2026-05-06 15:08 | 51.57609 | -0.60659 | 35669 ft | 386 kts | 262° |
| 2026-05-06 15:09 | 51.57235 | -0.65009 | 34410 ft | 400 kts | 262° |
| 2026-05-06 15:09 | 51.56846 | -0.69507 | 32901 ft | 414 kts | 262° |
| 2026-05-06 15:09 | 51.56449 | -0.74090 | 31388 ft | 425 kts | 262° |
| 2026-05-06 15:09 | 51.56034 | -0.78848 | 29933 ft | 434 kts | 262° |
| 2026-05-06 15:10 | 51.55611 | -0.83673 | 28337 ft | 438 kts | 262° |
| 2026-05-06 15:10 | 51.55185 | -0.88516 | 26862 ft | 439 kts | 262° |
| 2026-05-06 15:10 | 51.54756 | -0.93361 | 25482 ft | 437 kts | 262° |
| 2026-05-06 15:10 | 51.54327 | -0.98185 | 24221 ft | 436 kts | 262° |
| 2026-05-06 15:11 | 51.53905 | -1.02917 | 23720 ft | 427 kts | 262° |
| 2026-05-06 15:11 | 51.53484 | -1.07615 | 23041 ft | 421 kts | 262° |
| 2026-05-06 15:11 | 51.53074 | -1.12170 | 22423 ft | 414 kts | 262° |
| 2026-05-06 15:11 | 51.52773 | -1.16723 | 21857 ft | 406 kts | 271° |
| 2026-05-06 15:12 | 51.53162 | -1.21139 | 21508 ft | 395 kts | 281° |
| 2026-05-06 15:12 | 51.53714 | -1.25410 | 21086 ft | 386 kts | 281° |
| 2026-05-06 15:12 | 51.54244 | -1.29596 | 20691 ft | 379 kts | 281° |
| 2026-05-06 15:12 | 51.54754 | -1.33738 | 20318 ft | 377 kts | 281° |
| 2026-05-06 15:13 | 51.55251 | -1.37873 | 19946 ft | 377 kts | 281° |
| 2026-05-06 15:13 | 51.55740 | -1.42007 | 19569 ft | 376 kts | 281° |
| 2026-05-06 15:13 | 51.56217 | -1.46072 | 19197 ft | 375 kts | 281° |
| 2026-05-06 15:13 | 51.56697 | -1.50192 | 18823 ft | 375 kts | 281° |
| 2026-05-06 15:14 | 51.57167 | -1.54233 | 18461 ft | 373 kts | 281° |
| 2026-05-06 15:14 | 51.57642 | -1.58330 | 18058 ft | 372 kts | 281° |
| 2026-05-06 15:14 | 51.58113 | -1.62405 | 17649 ft | 370 kts | 281° |
| 2026-05-06 15:14 | 51.58570 | -1.66468 | 17262 ft | 368 kts | 279° |
| 2026-05-06 15:15 | 51.58898 | -1.70536 | 16883 ft | 365 kts | 277° |
| 2026-05-06 15:15 | 51.59165 | -1.74585 | 16521 ft | 363 kts | 276° |
| 2026-05-06 15:15 | 51.59432 | -1.78560 | 16166 ft | 361 kts | 277° |
| 2026-05-06 15:15 | 51.59713 | -1.82565 | 15802 ft | 360 kts | 277° |
| 2026-05-06 15:16 | 51.59960 | -1.86552 | 15425 ft | 358 kts | 272° |
| 2026-05-06 15:16 | 51.59566 | -1.90491 | 15076 ft | 358 kts | 252° |
| 2026-05-06 15:16 | 51.58439 | -1.94052 | 14722 ft | 358 kts | 239° |
| 2026-05-06 15:16 | 51.57080 | -1.97361 | 14367 ft | 351 kts | 238° |
| 2026-05-06 15:17 | 51.55741 | -2.00600 | 14017 ft | 345 kts | 238° |
| 2026-05-06 15:17 | 51.54440 | -2.03804 | 13652 ft | 340 kts | 239° |
| 2026-05-06 15:17 | 51.53187 | -2.06922 | 13285 ft | 334 kts | 239° |
| 2026-05-06 15:17 | 51.52109 | -2.10118 | 12945 ft | 317 kts | 249° |
| 2026-05-06 15:18 | 51.51342 | -2.13343 | 12632 ft | 303 kts | 252° |
| 2026-05-06 15:18 | 51.50670 | -2.16487 | 12326 ft | 295 kts | 253° |
| 2026-05-06 15:18 | 51.50013 | -2.19591 | 12026 ft | 293 kts | 253° |
| 2026-05-06 15:18 | 51.49351 | -2.22668 | 11746 ft | 291 kts | 252° |
| 2026-05-06 15:19 | 51.48681 | -2.25723 | 11456 ft | 289 kts | 252° |
| 2026-05-06 15:19 | 51.48007 | -2.28757 | 11167 ft | 288 kts | 252° |
| 2026-05-06 15:19 | 51.47337 | -2.31736 | 10881 ft | 287 kts | 252° |
| 2026-05-06 15:19 | 51.46659 | -2.34736 | 10586 ft | 286 kts | 252° |
| 2026-05-06 15:20 | 51.45979 | -2.37728 | 10309 ft | 285 kts | 252° |
| 2026-05-06 15:20 | 51.45301 | -2.40700 | 10019 ft | 283 kts | 252° |
| 2026-05-06 15:20 | 51.44625 | -2.43652 | 9716 ft | 281 kts | 252° |
| 2026-05-06 15:20 | 51.43952 | -2.46588 | 9408 ft | 280 kts | 252° |
| 2026-05-06 15:21 | 51.43321 | -2.49340 | 9125 ft | 277 kts | 252° |
| 2026-05-06 15:21 | 51.42658 | -2.52223 | 8845 ft | 275 kts | 251° |
| 2026-05-06 15:21 | 51.41999 | -2.55084 | 8575 ft | 272 kts | 251° |
| 2026-05-06 15:21 | 51.41345 | -2.57922 | 8298 ft | 271 kts | 251° |
| 2026-05-06 15:22 | 51.40721 | -2.60629 | 8038 ft | 269 kts | 251° |
| 2026-05-06 15:22 | 51.40073 | -2.63429 | 7772 ft | 267 kts | 251° |
| 2026-05-06 15:22 | 51.39433 | -2.66194 | 7504 ft | 265 kts | 251° |
| 2026-05-06 15:22 | 51.38791 | -2.68959 | 7229 ft | 264 kts | 251° |
| 2026-05-06 15:23 | 51.38252 | -2.71715 | 6946 ft | 261 kts | 265° |
| 2026-05-06 15:23 | 51.38481 | -2.74531 | 6656 ft | 252 kts | 286° |
| 2026-05-06 15:23 | 51.38942 | -2.77197 | 6344 ft | 245 kts | 286° |
| 2026-05-06 15:23 | 51.39380 | -2.79800 | 6019 ft | 239 kts | 285° |
| 2026-05-06 15:24 | 51.39793 | -2.82313 | 5728 ft | 236 kts | 285° |
| 2026-05-06 15:24 | 51.40202 | -2.84859 | 5448 ft | 236 kts | 285° |
| 2026-05-06 15:24 | 51.40605 | -2.87407 | 5175 ft | 236 kts | 286° |
| 2026-05-06 15:24 | 51.41002 | -2.89932 | 4921 ft | 231 kts | 285° |
| 2026-05-06 15:25 | 51.41386 | -2.92390 | 4629 ft | 224 kts | 285° |
| 2026-05-06 15:25 | 51.41723 | -2.94790 | 4323 ft | 219 kts | 276° |
| 2026-05-06 15:25 | 51.41303 | -2.97046 | 4065 ft | 214 kts | 230° |
| 2026-05-06 15:25 | 51.40076 | -2.98241 | 3815 ft | 207 kts | 191° |
| 2026-05-06 15:26 | 51.38741 | -2.97914 | 3558 ft | 196 kts | 143° |
| 2026-05-06 15:26 | 51.38016 | -2.96230 | 3349 ft | 181 kts | 99° |
| 2026-05-06 15:26 | 51.37781 | -2.94333 | 3216 ft | 171 kts | 102° |
| 2026-05-06 15:26 | 51.37625 | -2.92492 | 3029 ft | 166 kts | 92° |
| 2026-05-06 15:27 | 51.37588 | -2.90627 | 2795 ft | 169 kts | 88° |
| 2026-05-06 15:27 | 51.37630 | -2.88768 | 2572 ft | 166 kts | 86° |
| 2026-05-06 15:27 | 51.37695 | -2.86931 | 2369 ft | 164 kts | 86° |
| 2026-05-06 15:27 | 51.37765 | -2.85096 | 2122 ft | 165 kts | 84° |
| 2026-05-06 15:28 | 51.37831 | -2.83299 | 1895 ft | 157 kts | 85° |
| 2026-05-06 15:28 | 51.37894 | -2.81621 | 1682 ft | 150 kts | 84° |
| 2026-05-06 15:28 | 51.37958 | -2.79980 | 1479 ft | 147 kts | 84° |
| 2026-05-06 15:28 | 51.38019 | -2.78355 | 1306 ft | 143 kts | 84° |
| 2026-05-06 15:29 | 51.38079 | -2.76792 | 1084 ft | 138 kts | 83° |
| 2026-05-06 15:29 | 51.38138 | -2.75277 | 880 ft | 135 kts | 84° |
| 2026-05-06 15:29 | 51.38198 | -2.73791 | 713 ft | 132 kts | 83° |
| 2026-05-06 15:29 | 51.38252 | -2.72352 | 623 ft | 115 kts | 87° |
| 2026-05-06 15:30 | 51.38287 | -2.71412 | 601 ft | 54 kts | 86° |
| 2026-05-06 15:30 | 51.38307 | -2.70897 | 602 ft | 40 kts | 86° |
| 2026-05-06 15:30 | 51.38364 | -2.70747 | 616 ft | 15 kts | 20° |
| 2026-05-06 15:30 | 51.38450 | -2.70716 | 610 ft | 10 kts | 336° |
| 2026-05-06 15:31 | 51.38468 | -2.70818 | 611 ft | 10 kts | 266° |
| 2026-05-06 15:31 | 51.38463 | -2.70928 | 613 ft | 10 kts | 266° |
| 2026-05-06 15:31 | 51.38462 | -2.70966 | 613 ft | 1 kts | 266° |
| 2026-05-06 15:32 | 51.38461 | -2.70978 | 613 ft | 1 kts | 266° |
| 2026-05-06 15:32 | 51.38459 | -2.71030 | 614 ft | 8 kts | 266° |
| 2026-05-06 15:32 | 51.38470 | -2.71070 | 625 ft | 3 kts | 332° |
| 2026-05-06 15:32 | 51.38500 | -2.71076 | 614 ft | 6 kts | 355° |
| 2026-05-06 15:33 | 51.38535 | -2.71079 | 612 ft | 3 kts | 356° |
| 2026-05-06 15:33 | 51.38548 | -2.71081 | 612 ft | 1 kts | 356° |